Rhapsody Of The Seas — C6UA2 — position and weather

sailwx.info

Track history (hours):
 
Tides and Currents Weather Stations Pressure Air Temp Water Temp Dewpoint Dewpoint Depression Visibility Wind Speed Wind Dir Waves Ship Positions

Rhapsody Of The Seas

Last reported at 2019-Dec-08 08:00 UTC. Time now 2019-Dec-08 10:04 UTC.
Position N 25°06' W 083°06'.

Type: Passenger vessel. MMSI: 311805000.

Wind from 080 at 19 knots

Barometer 1021.9 mb
Air temperature 23.0 ° C
Visibility: greater than 5.4 NM
Water temperature 26.0 ° C

Date/timePositionNaut miles runAvg speedWind from/ knotsBaromVisibWave heightAir tempDewpointWater temp
2019-Dec-08 08:00N 25°06' W 083°06'15218.9 080 / 191021.9 5.4 23.0 26.0
2019-Dec-07 23:59N 27°36' W 082°45'1115.2
2019-Dec-07 23:15N 27°41' W 082°34'16 9.4
2019-Dec-07 21:30N 27°56' W 082°27'1 0.6
2019-Dec-07 20:29N 27°57' W 082°27'0 0.0
2019-Dec-07 15:29N 27°57' W 082°27'0 0.0
2019-Dec-07 14:29N 27°57' W 082°27'0 0.0
2019-Dec-07 13:59N 27°57' W 082°27'2 0.7
2019-Dec-07 10:30N 27°54' W 082°26'10 9.8
2019-Dec-07 09:30N 27°46' W 082°31'1514.4
2019-Dec-07 08:27N 27°36' W 082°45'42817.5
2019-Dec-06 08:00N 21°12' W 086°12'9519.1 080 / 161020.910.8 26.0 25.0
2019-Dec-06 03:00N 19°48' W 087°00'89 5.5 050 / 161021.910.8 26.020.227.0
2019-Dec-05 11:00N 18°24' W 087°30'125 4.8 090 / 171019.9 5.4 26.0 25.0
2019-Dec-04 09:00N 16°24' W 086°54'5010.0 040 / 121016.9 5.4 26.0 25.0
2019-Dec-04 04:00N 16°54' W 087°36'84 4.2 040 / 141018.910.8 26.021.827.0
2019-Dec-03 08:00N 18°18' W 087°36'13615.1 040 / 181020.9 2.2 25.0 23.0
2019-Dec-02 23:00N 20°29' W 086°59'0 0.4
2019-Dec-02 22:29N 20°29' W 086°59'0 0.0
2019-Dec-02 21:29N 20°29' W 086°59'0 0.0
2019-Dec-02 19:29N 20°29' W 086°59'0 0.0
2019-Dec-02 18:59N 20°29' W 086°59'0 0.0
2019-Dec-02 18:29N 20°29' W 086°59'0 0.0
2019-Dec-02 17:29N 20°29' W 086°59'0 0.0
2019-Dec-02 16:59N 20°29' W 086°59'0 0.0
2019-Dec-02 15:59N 20°29' W 086°59'43 5.4
2019-Dec-02 08:00N 21°06' W 086°36'10312.9 020 / 61019.9 5.4 26.0 25.0
2019-Dec-02 00:00N 22°36' W 085°42'22114.7 130 / 21018.910.8 26.021.826.0
2019-Dec-01 09:00N 25°54' W 083°54'8912.7 180 / 141017.9 5.4 24.0 23.0
2019-Dec-01 02:00N 27°12' W 083°06'3316.4 180 / 131018.910.8 22.020.6
2019-Dec-01 00:00N 27°37' W 082°42'1413.9
2019-Nov-30 23:00N 27°47' W 082°31'11 7.3
2019-Nov-30 21:30N 27°57' W 082°27'0 0.0
2019-Nov-30 20:30N 27°57' W 082°27'0 0.0
2019-Nov-30 19:00N 27°57' W 082°27'0 0.0
2019-Nov-30 18:27N 27°57' W 082°27'0 0.0
2019-Nov-30 13:30N 27°57' W 082°27'0 0.0
2019-Nov-30 12:30N 27°57' W 082°27'1543146.8
2019-Nov-30 02:00N 26°18' W 053°36'1790111.9 030 / 131021.910.8 24.016.324.0
2019-Nov-29 10:00N 21°48' W 085°54'188 7.8 090 / 231020.9 5.4 28.0 23.0
2019-Nov-28 10:00N 19°00' W 087°24'   100 / 191019.9 5.4 27.0 27.0
Track history (hours):
 
Tides and Currents Weather Stations Pressure Air Temp Water Temp Dewpoint Dewpoint Depression Visibility Wind Speed Wind Dir Waves Ship Positions

Rhapsody Of The Seas

Last reported at 2019-Dec-08 08:00 UTC. Time now 2019-Dec-08 10:04 UTC.
Position N 25°06' W 083°06'.

Type: Passenger vessel. MMSI: 311805000.

Wind from 080 at 19 knots

Barometer 1021.9 mb
Air temperature 23.0 ° C
Visibility: greater than 5.4 NM
Water temperature 26.0 ° C

Date/timePositionNaut miles runAvg speedWind from/ knotsBaromVisibWave heightAir tempDewpointWater temp
2019-Dec-08 08:00N 25°06' W 083°06'15218.9 080 / 191021.9 5.4 23.0 26.0
2019-Dec-07 23:59N 27°36' W 082°45'1115.2
2019-Dec-07 23:15N 27°41' W 082°34'16 9.4
2019-Dec-07 21:30N 27°56' W 082°27'1 0.6
2019-Dec-07 20:29N 27°57' W 082°27'0 0.0
2019-Dec-07 15:29N 27°57' W 082°27'0 0.0
2019-Dec-07 14:29N 27°57' W 082°27'0 0.0
2019-Dec-07 13:59N 27°57' W 082°27'2 0.7
2019-Dec-07 10:30N 27°54' W 082°26'10 9.8
2019-Dec-07 09:30N 27°46' W 082°31'1514.4
2019-Dec-07 08:27N 27°36' W 082°45'42817.5
2019-Dec-06 08:00N 21°12' W 086°12'9519.1 080 / 161020.910.8 26.0 25.0
2019-Dec-06 03:00N 19°48' W 087°00'89 5.5 050 / 161021.910.8 26.020.227.0
2019-Dec-05 11:00N 18°24' W 087°30'125 4.8 090 / 171019.9 5.4 26.0 25.0
2019-Dec-04 09:00N 16°24' W 086°54'5010.0 040 / 121016.9 5.4 26.0 25.0
2019-Dec-04 04:00N 16°54' W 087°36'84 4.2 040 / 141018.910.8 26.021.827.0
2019-Dec-03 08:00N 18°18' W 087°36'13615.1 040 / 181020.9 2.2 25.0 23.0
2019-Dec-02 23:00N 20°29' W 086°59'0 0.4
2019-Dec-02 22:29N 20°29' W 086°59'0 0.0
2019-Dec-02 21:29N 20°29' W 086°59'0 0.0
2019-Dec-02 19:29N 20°29' W 086°59'0 0.0
2019-Dec-02 18:59N 20°29' W 086°59'0 0.0
2019-Dec-02 18:29N 20°29' W 086°59'0 0.0
2019-Dec-02 17:29N 20°29' W 086°59'0 0.0
2019-Dec-02 16:59N 20°29' W 086°59'0 0.0
2019-Dec-02 15:59N 20°29' W 086°59'43 5.4
2019-Dec-02 08:00N 21°06' W 086°36'10312.9 020 / 61019.9 5.4 26.0 25.0
2019-Dec-02 00:00N 22°36' W 085°42'22114.7 130 / 21018.910.8 26.021.826.0
2019-Dec-01 09:00N 25°54' W 083°54'8912.7 180 / 141017.9 5.4 24.0 23.0
2019-Dec-01 02:00N 27°12' W 083°06'3316.4 180 / 131018.910.8 22.020.6
2019-Dec-01 00:00N 27°37' W 082°42'1413.9
2019-Nov-30 23:00N 27°47' W 082°31'11 7.3
2019-Nov-30 21:30N 27°57' W 082°27'0 0.0
2019-Nov-30 20:30N 27°57' W 082°27'0 0.0
2019-Nov-30 19:00N 27°57' W 082°27'0 0.0
2019-Nov-30 18:27N 27°57' W 082°27'0 0.0
2019-Nov-30 13:30N 27°57' W 082°27'0 0.0
2019-Nov-30 12:30N 27°57' W 082°27'1543146.8
2019-Nov-30 02:00N 26°18' W 053°36'1790111.9 030 / 131021.910.8 24.016.324.0
2019-Nov-29 10:00N 21°48' W 085°54'188 7.8 090 / 231020.9 5.4 28.0 23.0
2019-Nov-28 10:00N 19°00' W 087°24'   100 / 191019.9 5.4 27.0 27.0

Dump ship's entire track history